sensor_id;sensor_type;location;lat;lon;timestamp;pressure;altitude;pressure_sealevel;temperature;humidity
23176;BME280;19910;42.652;23.332;2023-09-08T00:01:12;95113.63;;;18.98;80.46
23176;BME280;19910;42.652;23.332;2023-09-08T00:03:38;95123.00;;;18.97;80.74
23176;BME280;19910;42.652;23.332;2023-09-08T00:06:05;95107.56;;;18.89;81.08
23176;BME280;19910;42.652;23.332;2023-09-08T00:08:33;95122.03;;;18.86;80.92
23176;BME280;19910;42.652;23.332;2023-09-08T00:11:00;95110.22;;;18.82;81.64
23176;BME280;19910;42.652;23.332;2023-09-08T00:13:27;95102.72;;;18.79;80.83
23176;BME280;19910;42.652;23.332;2023-09-08T00:15:54;95109.34;;;18.78;79.65
23176;BME280;19910;42.652;23.332;2023-09-08T00:18:21;95104.66;;;18.78;78.92
23176;BME280;19910;42.652;23.332;2023-09-08T00:20:48;95097.66;;;18.81;75.60
23176;BME280;19910;42.652;23.332;2023-09-08T00:23:15;95091.81;;;18.86;75.35
23176;BME280;19910;42.652;23.332;2023-09-08T00:25:43;95104.41;;;18.87;73.88
23176;BME280;19910;42.652;23.332;2023-09-08T00:28:10;95098.50;;;18.85;73.48
23176;BME280;19910;42.652;23.332;2023-09-08T00:30:37;95094.56;;;18.86;73.12
23176;BME280;19910;42.652;23.332;2023-09-08T00:33:04;95096.59;;;18.89;73.21
23176;BME280;19910;42.652;23.332;2023-09-08T00:35:33;95096.16;;;18.87;72.67
23176;BME280;19910;42.652;23.332;2023-09-08T00:38:00;95095.38;;;18.87;72.86
23176;BME280;19910;42.652;23.332;2023-09-08T00:41:05;95088.31;;;18.86;72.56
23176;BME280;19910;42.652;23.332;2023-09-08T00:43:51;95094.91;;;18.81;72.94
23176;BME280;19910;42.652;23.332;2023-09-08T00:46:18;95091.22;;;18.70;73.64
23176;BME280;19910;42.652;23.332;2023-09-08T00:48:45;95097.50;;;18.70;73.43
23176;BME280;19910;42.652;23.332;2023-09-08T00:51:12;95088.03;;;18.68;73.95
23176;BME280;19910;42.652;23.332;2023-09-08T00:53:39;95094.25;;;18.65;74.23
23176;BME280;19910;42.652;23.332;2023-09-08T00:56:08;95084.00;;;18.62;74.28
23176;BME280;19910;42.652;23.332;2023-09-08T00:58:35;95092.66;;;18.64;73.84
23176;BME280;19910;42.652;23.332;2023-09-08T01:01:03;95084.72;;;18.59;73.71
23176;BME280;19910;42.652;23.332;2023-09-08T01:03:31;95089.34;;;18.55;74.13
23176;BME280;19910;42.652;23.332;2023-09-08T01:05:58;95089.44;;;18.58;72.73
23176;BME280;19910;42.652;23.332;2023-09-08T01:08:25;95083.13;;;18.58;73.59
23176;BME280;19910;42.652;23.332;2023-09-08T01:10:53;95086.75;;;18.62;73.69
23176;BME280;19910;42.652;23.332;2023-09-08T01:13:21;95086.44;;;18.67;72.52
23176;BME280;19910;42.652;23.332;2023-09-08T01:15:49;95084.00;;;18.62;73.60
23176;BME280;19910;42.652;23.332;2023-09-08T01:18:15;95084.59;;;18.52;74.27
23176;BME280;19910;42.652;23.332;2023-09-08T01:20:59;95087.75;;;18.54;74.52
23176;BME280;19910;42.652;23.332;2023-09-08T01:23:43;95085.81;;;18.54;74.51
23176;BME280;19910;42.652;23.332;2023-09-08T01:26:17;95083.00;;;18.51;74.71
23176;BME280;19910;42.652;23.332;2023-09-08T01:28:49;95086.47;;;18.47;74.69
23176;BME280;19910;42.652;23.332;2023-09-08T01:31:16;95090.81;;;18.48;74.72
23176;BME280;19910;42.652;23.332;2023-09-08T01:33:44;95084.09;;;18.46;74.79
23176;BME280;19910;42.652;23.332;2023-09-08T01:36:12;95077.41;;;18.43;74.98
23176;BME280;19910;42.652;23.332;2023-09-08T01:38:39;95078.94;;;18.41;75.20
23176;BME280;19910;42.652;23.332;2023-09-08T01:41:06;95082.84;;;18.40;75.49
23176;BME280;19910;42.652;23.332;2023-09-08T01:43:34;95088.25;;;18.36;75.90
23176;BME280;19910;42.652;23.332;2023-09-08T01:46:01;95074.09;;;18.34;76.16
23176;BME280;19910;42.652;23.332;2023-09-08T01:48:27;95078.00;;;18.33;76.26
23176;BME280;19910;42.652;23.332;2023-09-08T01:50:54;95072.22;;;18.38;75.76
23176;BME280;19910;42.652;23.332;2023-09-08T01:53:21;95063.25;;;18.41;76.06
23176;BME280;19910;42.652;23.332;2023-09-08T01:55:48;95070.94;;;18.32;76.56
23176;BME280;19910;42.652;23.332;2023-09-08T02:01:40;95073.94;;;18.24;77.49
23176;BME280;19910;42.652;23.332;2023-09-08T02:04:07;95072.16;;;18.12;78.33
23176;BME280;19910;42.652;23.332;2023-09-08T02:06:34;95068.13;;;18.06;78.73
23176;BME280;19910;42.652;23.332;2023-09-08T02:09:00;95069.59;;;18.00;79.47
23176;BME280;19910;42.652;23.332;2023-09-08T02:11:27;95073.06;;;17.97;79.80
23176;BME280;19910;42.652;23.332;2023-09-08T02:13:54;95078.91;;;17.95;79.94
23176;BME280;19910;42.652;23.332;2023-09-08T02:16:21;95075.06;;;18.00;80.00
23176;BME280;19910;42.652;23.332;2023-09-08T02:18:50;95073.84;;;17.97;80.41
23176;BME280;19910;42.652;23.332;2023-09-08T02:21:17;95062.38;;;17.92;80.91
23176;BME280;19910;42.652;23.332;2023-09-08T02:23:44;95056.16;;;17.95;81.02
23176;BME280;19910;42.652;23.332;2023-09-08T02:26:10;95062.38;;;17.92;81.14
23176;BME280;19910;42.652;23.332;2023-09-08T02:28:37;95059.22;;;17.90;81.34
23176;BME280;19910;42.652;23.332;2023-09-08T02:31:04;95053.59;;;17.83;81.73
23176;BME280;19910;42.652;23.332;2023-09-08T02:33:31;95052.44;;;17.84;81.76
23176;BME280;19910;42.652;23.332;2023-09-08T02:36:03;95051.56;;;17.80;82.15
23176;BME280;19910;42.652;23.332;2023-09-08T02:38:30;95054.19;;;17.72;82.72
23176;BME280;19910;42.652;23.332;2023-09-08T02:40:57;95048.63;;;17.69;83.16
23176;BME280;19910;42.652;23.332;2023-09-08T02:43:24;95055.63;;;17.66;83.50
23176;BME280;19910;42.652;23.332;2023-09-08T02:45:51;95051.59;;;17.60;84.42
23176;BME280;19910;42.652;23.332;2023-09-08T02:48:17;95054.59;;;17.55;85.18
23176;BME280;19910;42.652;23.332;2023-09-08T02:50:44;95058.94;;;17.56;85.99
23176;BME280;19910;42.652;23.332;2023-09-08T02:53:12;95060.97;;;17.59;86.63
23176;BME280;19910;42.652;23.332;2023-09-08T02:55:39;95054.53;;;17.52;87.26
23176;BME280;19910;42.652;23.332;2023-09-08T02:58:06;95051.31;;;17.46;88.00
23176;BME280;19910;42.652;23.332;2023-09-08T03:00:33;95053.16;;;17.42;88.88
23176;BME280;19910;42.652;23.332;2023-09-08T03:02:59;95046.38;;;17.36;89.28
23176;BME280;19910;42.652;23.332;2023-09-08T03:05:26;95057.78;;;17.38;89.61
23176;BME280;19910;42.652;23.332;2023-09-08T03:07:53;95051.81;;;17.32;90.15
23176;BME280;19910;42.652;23.332;2023-09-08T03:10:21;95047.84;;;17.30;90.32
23176;BME280;19910;42.652;23.332;2023-09-08T03:12:48;95046.97;;;17.26;90.81
23176;BME280;19910;42.652;23.332;2023-09-08T03:15:15;95045.38;;;17.25;90.99
23176;BME280;19910;42.652;23.332;2023-09-08T03:17:42;95046.03;;;17.18;91.40
23176;BME280;19910;42.652;23.332;2023-09-08T03:20:10;95046.75;;;17.15;92.17
23176;BME280;19910;42.652;23.332;2023-09-08T03:22:38;95055.16;;;17.07;92.62
23176;BME280;19910;42.652;23.332;2023-09-08T03:25:05;95051.13;;;17.00;93.23
23176;BME280;19910;42.652;23.332;2023-09-08T03:27:34;95052.97;;;16.96;93.67
23176;BME280;19910;42.652;23.332;2023-09-08T03:30:01;95050.09;;;16.89;94.21
23176;BME280;19910;42.652;23.332;2023-09-08T03:32:30;95057.06;;;16.87;94.74
23176;BME280;19910;42.652;23.332;2023-09-08T03:34:57;95057.63;;;16.77;95.11
23176;BME280;19910;42.652;23.332;2023-09-08T03:37:24;95059.13;;;16.74;95.73
23176;BME280;19910;42.652;23.332;2023-09-08T03:39:51;95063.72;;;16.70;96.19
23176;BME280;19910;42.652;23.332;2023-09-08T03:42:18;95063.09;;;16.61;97.20
23176;BME280;19910;42.652;23.332;2023-09-08T03:44:46;95071.06;;;16.66;97.25
23176;BME280;19910;42.652;23.332;2023-09-08T03:47:13;95067.31;;;16.58;97.42
23176;BME280;19910;42.652;23.332;2023-09-08T03:49:40;95066.81;;;16.53;98.26
23176;BME280;19910;42.652;23.332;2023-09-08T03:52:07;95065.84;;;16.45;98.75
23176;BME280;19910;42.652;23.332;2023-09-08T03:54:34;95060.00;;;16.47;98.88
23176;BME280;19910;42.652;23.332;2023-09-08T03:57:00;95057.53;;;16.42;98.64
23176;BME280;19910;42.652;23.332;2023-09-08T03:59:27;95056.69;;;16.38;99.08
23176;BME280;19910;42.652;23.332;2023-09-08T04:01:55;95060.47;;;16.33;98.71
23176;BME280;19910;42.652;23.332;2023-09-08T04:04:22;95061.94;;;16.30;98.03
23176;BME280;19910;42.652;23.332;2023-09-08T04:06:49;95073.78;;;16.34;98.03
23176;BME280;19910;42.652;23.332;2023-09-08T04:09:16;95066.03;;;16.37;97.86
23176;BME280;19910;42.652;23.332;2023-09-08T04:11:43;95067.63;;;16.38;97.58
23176;BME280;19910;42.652;23.332;2023-09-08T04:14:10;95065.31;;;16.40;97.51
23176;BME280;19910;42.652;23.332;2023-09-08T04:16:37;95067.06;;;16.48;97.36
23176;BME280;19910;42.652;23.332;2023-09-08T04:19:05;95061.63;;;16.63;96.57
23176;BME280;19910;42.652;23.332;2023-09-08T04:21:32;95060.06;;;16.82;95.71
23176;BME280;19910;42.652;23.332;2023-09-08T04:23:59;95059.41;;;17.04;94.89
23176;BME280;19910;42.652;23.332;2023-09-08T04:26:26;95066.34;;;17.17;93.86
23176;BME280;19910;42.652;23.332;2023-09-08T04:28:53;95067.56;;;17.20;93.52
23176;BME280;19910;42.652;23.332;2023-09-08T04:31:19;95070.38;;;17.23;93.69
23176;BME280;19910;42.652;23.332;2023-09-08T04:33:47;95071.91;;;17.21;93.86
23176;BME280;19910;42.652;23.332;2023-09-08T04:36:15;95063.84;;;17.47;93.16
23176;BME280;19910;42.652;23.332;2023-09-08T04:38:42;95063.50;;;18.10;90.93
23176;BME280;19910;42.652;23.332;2023-09-08T04:41:10;95058.78;;;19.05;86.23
23176;BME280;19910;42.652;23.332;2023-09-08T04:43:36;95057.56;;;19.93;81.47
23176;BME280;19910;42.652;23.332;2023-09-08T04:46:03;95060.81;;;20.42;78.67
23176;BME280;19910;42.652;23.332;2023-09-08T04:48:30;95058.31;;;20.71;76.93
23176;BME280;19910;42.652;23.332;2023-09-08T04:50:57;95063.28;;;21.09;75.30
23176;BME280;19910;42.652;23.332;2023-09-08T04:53:25;95054.94;;;21.57;72.78
23176;BME280;19910;42.652;23.332;2023-09-08T04:55:52;95062.00;;;21.61;72.47
23176;BME280;19910;42.652;23.332;2023-09-08T04:58:19;95057.31;;;21.58;72.19
23176;BME280;19910;42.652;23.332;2023-09-08T05:00:46;95057.69;;;21.64;71.68
23176;BME280;19910;42.652;23.332;2023-09-08T05:03:13;95054.22;;;21.78;71.05
23176;BME280;19910;42.652;23.332;2023-09-08T05:05:40;95055.16;;;22.35;68.92
23176;BME280;19910;42.652;23.332;2023-09-08T05:08:06;95050.06;;;22.73;65.98
23176;BME280;19910;42.652;23.332;2023-09-08T05:10:35;95047.31;;;22.90;65.78
23176;BME280;19910;42.652;23.332;2023-09-08T05:13:01;95045.16;;;23.76;63.09
23176;BME280;19910;42.652;23.332;2023-09-08T05:15:28;95048.66;;;23.87;61.56
23176;BME280;19910;42.652;23.332;2023-09-08T05:17:56;95049.88;;;23.79;60.76
23176;BME280;19910;42.652;23.332;2023-09-08T05:20:23;95051.66;;;24.18;60.42
23176;BME280;19910;42.652;23.332;2023-09-08T05:22:50;95045.25;;;24.35;59.51
23176;BME280;19910;42.652;23.332;2023-09-08T05:25:17;95052.41;;;24.29;59.05
23176;BME280;19910;42.652;23.332;2023-09-08T05:27:45;95053.41;;;24.56;58.35
23176;BME280;19910;42.652;23.332;2023-09-08T05:30:12;95047.81;;;23.97;59.68
23176;BME280;19910;42.652;23.332;2023-09-08T05:32:39;95050.97;;;24.65;58.21
23176;BME280;19910;42.652;23.332;2023-09-08T05:35:06;95050.53;;;24.70;57.80
23176;BME280;19910;42.652;23.332;2023-09-08T05:37:35;95054.16;;;25.12;56.91
23176;BME280;19910;42.652;23.332;2023-09-08T05:40:02;95058.56;;;25.47;56.46
23176;BME280;19910;42.652;23.332;2023-09-08T05:42:29;95054.84;;;25.61;55.00
23176;BME280;19910;42.652;23.332;2023-09-08T05:44:58;95058.69;;;26.04;53.41
23176;BME280;19910;42.652;23.332;2023-09-08T05:47:25;95054.88;;;25.95;52.82
23176;BME280;19910;42.652;23.332;2023-09-08T05:49:51;95058.78;;;25.97;51.63
23176;BME280;19910;42.652;23.332;2023-09-08T05:52:18;95066.38;;;25.18;52.16
23176;BME280;19910;42.652;23.332;2023-09-08T05:54:45;95066.22;;;24.36;54.65
23176;BME280;19910;42.652;23.332;2023-09-08T05:57:12;95062.16;;;25.03;52.82
23176;BME280;19910;42.652;23.332;2023-09-08T05:59:39;95063.56;;;25.22;52.75
23176;BME280;19910;42.652;23.332;2023-09-08T06:02:07;95069.53;;;25.58;51.43
23176;BME280;19910;42.652;23.332;2023-09-08T06:04:34;95076.34;;;25.12;52.07
23176;BME280;19910;42.652;23.332;2023-09-08T06:07:00;95077.38;;;24.80;52.76
23176;BME280;19910;42.652;23.332;2023-09-08T06:09:27;95065.59;;;24.69;52.79
23176;BME280;19910;42.652;23.332;2023-09-08T06:11:54;95073.28;;;25.81;50.80
23176;BME280;19910;42.652;23.332;2023-09-08T06:14:21;95068.97;;;25.39;50.13
23176;BME280;19910;42.652;23.332;2023-09-08T06:16:48;95064.84;;;25.55;49.72
23176;BME280;19910;42.652;23.332;2023-09-08T06:19:18;95064.06;;;26.18;48.77
23176;BME280;19910;42.652;23.332;2023-09-08T06:21:44;95062.63;;;26.07;48.57
23176;BME280;19910;42.652;23.332;2023-09-08T06:24:11;95068.88;;;26.14;48.88
23176;BME280;19910;42.652;23.332;2023-09-08T06:26:38;95074.13;;;25.75;48.18
23176;BME280;19910;42.652;23.332;2023-09-08T06:29:05;95079.38;;;25.28;48.43
23176;BME280;19910;42.652;23.332;2023-09-08T06:31:32;95082.91;;;25.70;47.19
23176;BME280;19910;42.652;23.332;2023-09-08T06:33:58;95085.53;;;25.84;46.20
23176;BME280;19910;42.652;23.332;2023-09-08T06:36:27;95087.28;;;26.01;46.60
23176;BME280;19910;42.652;23.332;2023-09-08T06:38:53;95099.81;;;26.16;45.49
23176;BME280;19910;42.652;23.332;2023-09-08T06:41:20;95088.06;;;26.05;44.58
23176;BME280;19910;42.652;23.332;2023-09-08T06:43:48;95089.63;;;26.06;44.91
23176;BME280;19910;42.652;23.332;2023-09-08T06:46:15;95097.09;;;25.79;44.94
23176;BME280;19910;42.652;23.332;2023-09-08T06:48:42;95089.81;;;25.92;44.35
23176;BME280;19910;42.652;23.332;2023-09-08T06:51:09;95095.84;;;25.42;45.77
23176;BME280;19910;42.652;23.332;2023-09-08T06:53:37;95091.19;;;26.07;44.25
23176;BME280;19910;42.652;23.332;2023-09-08T06:56:04;95091.28;;;26.61;44.25
23176;BME280;19910;42.652;23.332;2023-09-08T06:58:31;95087.88;;;27.04;42.45
23176;BME280;19910;42.652;23.332;2023-09-08T07:00:58;95101.06;;;26.69;43.11
23176;BME280;19910;42.652;23.332;2023-09-08T07:03:24;95079.94;;;27.02;42.74
23176;BME280;19910;42.652;23.332;2023-09-08T07:05:52;95098.72;;;26.41;43.53
23176;BME280;19910;42.652;23.332;2023-09-08T07:08:19;95103.59;;;25.99;44.73
23176;BME280;19910;42.652;23.332;2023-09-08T07:10:51;95086.97;;;25.62;44.60
23176;BME280;19910;42.652;23.332;2023-09-08T07:13:19;95094.84;;;25.67;44.43
23176;BME280;19910;42.652;23.332;2023-09-08T07:15:46;95098.94;;;25.89;43.96
23176;BME280;19910;42.652;23.332;2023-09-08T07:18:13;95105.13;;;24.77;45.63
23176;BME280;19910;42.652;23.332;2023-09-08T07:20:40;95085.31;;;24.78;46.27
23176;BME280;19910;42.652;23.332;2023-09-08T07:23:07;95094.16;;;25.56;45.94
23176;BME280;19910;42.652;23.332;2023-09-08T07:25:34;95101.69;;;25.14;45.00
23176;BME280;19910;42.652;23.332;2023-09-08T07:28:02;95087.66;;;24.84;46.70
23176;BME280;19910;42.652;23.332;2023-09-08T07:30:31;95084.59;;;24.67;46.59
23176;BME280;19910;42.652;23.332;2023-09-08T07:32:58;95086.88;;;24.79;46.61
23176;BME280;19910;42.652;23.332;2023-09-08T07:35:25;95079.31;;;24.32;46.71
23176;BME280;19910;42.652;23.332;2023-09-08T07:37:52;95085.69;;;24.80;46.96
23176;BME280;19910;42.652;23.332;2023-09-08T07:40:19;95071.66;;;25.02;46.64
23176;BME280;19910;42.652;23.332;2023-09-08T07:42:47;95080.91;;;25.33;45.97
23176;BME280;19910;42.652;23.332;2023-09-08T07:45:15;95080.50;;;25.72;45.73
23176;BME280;19910;42.652;23.332;2023-09-08T07:47:42;95076.03;;;25.44;45.64
23176;BME280;19910;42.652;23.332;2023-09-08T07:50:18;95081.13;;;25.08;45.66
23176;BME280;19910;42.652;23.332;2023-09-08T07:52:46;95070.59;;;25.33;45.59
23176;BME280;19910;42.652;23.332;2023-09-08T07:55:13;95080.56;;;24.79;46.79
23176;BME280;19910;42.652;23.332;2023-09-08T07:57:41;95075.75;;;24.31;47.68
23176;BME280;19910;42.652;23.332;2023-09-08T08:00:08;95088.53;;;24.00;49.54
23176;BME280;19910;42.652;23.332;2023-09-08T08:02:42;95082.78;;;23.49;49.73
23176;BME280;19910;42.652;23.332;2023-09-08T08:05:09;95077.97;;;23.67;50.18
23176;BME280;19910;42.652;23.332;2023-09-08T08:07:37;95070.75;;;23.94;48.44
23176;BME280;19910;42.652;23.332;2023-09-08T08:10:05;95081.34;;;24.14;49.17
23176;BME280;19910;42.652;23.332;2023-09-08T08:12:32;95080.75;;;24.51;48.43
23176;BME280;19910;42.652;23.332;2023-09-08T08:14:59;95066.66;;;24.83;46.61
23176;BME280;19910;42.652;23.332;2023-09-08T08:17:26;95071.34;;;25.37;46.85
23176;BME280;19910;42.652;23.332;2023-09-08T08:19:55;95067.38;;;25.38;46.10
23176;BME280;19910;42.652;23.332;2023-09-08T08:22:23;95063.81;;;24.97;46.30
23176;BME280;19910;42.652;23.332;2023-09-08T08:24:50;95063.72;;;25.04;46.04
23176;BME280;19910;42.652;23.332;2023-09-08T08:27:17;95062.22;;;25.78;44.86
23176;BME280;19910;42.652;23.332;2023-09-08T08:29:44;95072.97;;;26.06;44.04
23176;BME280;19910;42.652;23.332;2023-09-08T08:32:11;95062.38;;;26.25;43.64
23176;BME280;19910;42.652;23.332;2023-09-08T08:34:38;95056.31;;;25.72;43.04
23176;BME280;19910;42.652;23.332;2023-09-08T08:37:06;95065.94;;;26.25;43.54
23176;BME280;19910;42.652;23.332;2023-09-08T08:39:33;95056.56;;;26.46;42.61
23176;BME280;19910;42.652;23.332;2023-09-08T08:42:06;95052.56;;;25.86;41.76
23176;BME280;19910;42.652;23.332;2023-09-08T08:44:34;95055.16;;;25.70;43.28
23176;BME280;19910;42.652;23.332;2023-09-08T08:47:02;95057.31;;;25.89;43.54
23176;BME280;19910;42.652;23.332;2023-09-08T08:49:31;95048.06;;;26.26;42.57
23176;BME280;19910;42.652;23.332;2023-09-08T08:51:58;95053.94;;;25.71;42.22
23176;BME280;19910;42.652;23.332;2023-09-08T08:54:30;95054.16;;;26.17;42.87
23176;BME280;19910;42.652;23.332;2023-09-08T08:56:58;95042.78;;;26.08;41.43
23176;BME280;19910;42.652;23.332;2023-09-08T08:59:27;95047.75;;;25.94;42.73
23176;BME280;19910;42.652;23.332;2023-09-08T09:01:57;95041.84;;;25.88;42.89
23176;BME280;19910;42.652;23.332;2023-09-08T09:04:25;95048.38;;;26.05;42.63
23176;BME280;19910;42.652;23.332;2023-09-08T09:06:52;95047.53;;;26.38;42.34
23176;BME280;19910;42.652;23.332;2023-09-08T09:09:19;95037.25;;;27.12;41.96
23176;BME280;19910;42.652;23.332;2023-09-08T09:11:50;95043.09;;;26.95;41.03
23176;BME280;19910;42.652;23.332;2023-09-08T09:14:17;95046.53;;;26.52;40.99
23176;BME280;19910;42.652;23.332;2023-09-08T09:16:45;95038.53;;;26.58;41.06
23176;BME280;19910;42.652;23.332;2023-09-08T09:19:18;95040.09;;;26.59;40.83
23176;BME280;19910;42.652;23.332;2023-09-08T09:21:51;95037.50;;;26.98;41.34
23176;BME280;19910;42.652;23.332;2023-09-08T09:24:30;95048.06;;;26.30;42.12
23176;BME280;19910;42.652;23.332;2023-09-08T09:26:59;95043.41;;;26.19;42.21
23176;BME280;19910;42.652;23.332;2023-09-08T09:29:27;95037.66;;;26.37;42.18
23176;BME280;19910;42.652;23.332;2023-09-08T09:31:56;95035.81;;;25.97;42.25
23176;BME280;19910;42.652;23.332;2023-09-08T09:34:23;95032.69;;;25.91;41.71
23176;BME280;19910;42.652;23.332;2023-09-08T09:36:51;95025.38;;;26.04;41.96
23176;BME280;19910;42.652;23.332;2023-09-08T09:39:18;95037.75;;;26.27;41.35
23176;BME280;19910;42.652;23.332;2023-09-08T09:41:45;95023.97;;;26.19;41.68
23176;BME280;19910;42.652;23.332;2023-09-08T09:44:14;95033.91;;;26.74;41.35
23176;BME280;19910;42.652;23.332;2023-09-08T09:46:43;95017.09;;;26.81;41.01
23176;BME280;19910;42.652;23.332;2023-09-08T09:49:11;95021.44;;;26.59;42.03
23176;BME280;19910;42.652;23.332;2023-09-08T09:51:42;95034.19;;;26.26;41.28
23176;BME280;19910;42.652;23.332;2023-09-08T09:54:09;95031.06;;;25.60;42.76
23176;BME280;19910;42.652;23.332;2023-09-08T09:56:38;95034.00;;;25.45;43.26
23176;BME280;19910;42.652;23.332;2023-09-08T09:59:07;95029.06;;;25.64;42.53
23176;BME280;19910;42.652;23.332;2023-09-08T10:01:36;95031.47;;;25.58;43.04
23176;BME280;19910;42.652;23.332;2023-09-08T10:04:04;95025.00;;;25.72;43.11
23176;BME280;19910;42.652;23.332;2023-09-08T10:06:32;95023.41;;;25.71;43.24
23176;BME280;19910;42.652;23.332;2023-09-08T10:08:59;95028.97;;;25.71;43.78
23176;BME280;19910;42.652;23.332;2023-09-08T10:11:34;95012.81;;;25.28;43.47
23176;BME280;19910;42.652;23.332;2023-09-08T10:14:01;95022.28;;;25.31;43.39
23176;BME280;19910;42.652;23.332;2023-09-08T10:16:35;95016.91;;;25.50;42.81
23176;BME280;19910;42.652;23.332;2023-09-08T10:19:07;95012.25;;;25.78;42.11
23176;BME280;19910;42.652;23.332;2023-09-08T10:21:36;95006.47;;;25.65;42.71
23176;BME280;19910;42.652;23.332;2023-09-08T10:24:15;95007.25;;;25.96;43.04
23176;BME280;19910;42.652;23.332;2023-09-08T10:27:01;95009.59;;;25.67;42.91
23176;BME280;19910;42.652;23.332;2023-09-08T10:29:32;95007.44;;;25.10;43.97
23176;BME280;19910;42.652;23.332;2023-09-08T10:32:01;95005.22;;;24.91;44.41
23176;BME280;19910;42.652;23.332;2023-09-08T10:34:30;95009.25;;;24.83;44.97
23176;BME280;19910;42.652;23.332;2023-09-08T10:36:57;95008.91;;;24.77;45.29
23176;BME280;19910;42.652;23.332;2023-09-08T10:39:28;95004.84;;;24.41;47.06
23176;BME280;19910;42.652;23.332;2023-09-08T10:42:24;95003.97;;;24.51;46.95
23176;BME280;19910;42.652;23.332;2023-09-08T10:45:01;95002.63;;;24.15;47.88
23176;BME280;19910;42.652;23.332;2023-09-08T10:47:54;95012.41;;;24.33;46.90
23176;BME280;19910;42.652;23.332;2023-09-08T10:50:27;95014.19;;;24.61;46.23
23176;BME280;19910;42.652;23.332;2023-09-08T10:53:12;95030.94;;;24.99;45.95
23176;BME280;19910;42.652;23.332;2023-09-08T10:55:40;95007.16;;;24.50;46.98
23176;BME280;19910;42.652;23.332;2023-09-08T10:58:10;95004.75;;;24.55;46.93
23176;BME280;19910;42.652;23.332;2023-09-08T11:00:44;95009.63;;;24.37;47.83
23176;BME280;19910;42.652;23.332;2023-09-08T11:03:13;95003.59;;;24.49;48.13
23176;BME280;19910;42.652;23.332;2023-09-08T11:05:43;95003.84;;;24.69;47.14
23176;BME280;19910;42.652;23.332;2023-09-08T11:08:10;94992.09;;;24.54;47.47
23176;BME280;19910;42.652;23.332;2023-09-08T11:10:39;94991.44;;;24.36;47.71
23176;BME280;19910;42.652;23.332;2023-09-08T11:13:06;95009.69;;;24.30;49.06
23176;BME280;19910;42.652;23.332;2023-09-08T11:15:33;95022.44;;;24.09;48.86
23176;BME280;19910;42.652;23.332;2023-09-08T11:18:06;94996.41;;;24.00;49.50
23176;BME280;19910;42.652;23.332;2023-09-08T11:20:35;94992.31;;;24.26;48.79
23176;BME280;19910;42.652;23.332;2023-09-08T11:23:03;94995.50;;;24.17;48.74
23176;BME280;19910;42.652;23.332;2023-09-08T11:25:31;94986.53;;;23.95;48.94
23176;BME280;19910;42.652;23.332;2023-09-08T11:27:58;94980.72;;;24.41;48.97
23176;BME280;19910;42.652;23.332;2023-09-08T11:30:26;94984.03;;;24.70;47.98
23176;BME280;19910;42.652;23.332;2023-09-08T11:32:53;94993.00;;;24.40;48.34
23176;BME280;19910;42.652;23.332;2023-09-08T11:35:20;94992.38;;;24.08;49.32
23176;BME280;19910;42.652;23.332;2023-09-08T11:37:48;94986.16;;;23.93;49.33
23176;BME280;19910;42.652;23.332;2023-09-08T11:40:17;94973.97;;;24.42;48.39
23176;BME280;19910;42.652;23.332;2023-09-08T11:42:45;94983.38;;;24.52;48.12
23176;BME280;19910;42.652;23.332;2023-09-08T11:45:16;94979.75;;;25.07;47.17
23176;BME280;19910;42.652;23.332;2023-09-08T11:47:47;94976.84;;;24.76;47.44
23176;BME280;19910;42.652;23.332;2023-09-08T11:50:15;94961.41;;;24.75;48.02
23176;BME280;19910;42.652;23.332;2023-09-08T11:52:43;94964.16;;;24.79;48.19
23176;BME280;19910;42.652;23.332;2023-09-08T11:55:13;94962.16;;;24.79;48.03
23176;BME280;19910;42.652;23.332;2023-09-08T11:57:40;94967.06;;;24.65;48.62
23176;BME280;19910;42.652;23.332;2023-09-08T12:00:08;94969.97;;;24.47;49.08
23176;BME280;19910;42.652;23.332;2023-09-08T12:02:37;94956.47;;;24.56;48.58
23176;BME280;19910;42.652;23.332;2023-09-08T12:05:05;94960.03;;;24.98;47.71
23176;BME280;19910;42.652;23.332;2023-09-08T12:07:32;94958.75;;;25.74;46.76
23176;BME280;19910;42.652;23.332;2023-09-08T12:10:07;94949.13;;;25.52;46.53
23176;BME280;19910;42.652;23.332;2023-09-08T12:12:41;94967.75;;;25.17;46.77
23176;BME280;19910;42.652;23.332;2023-09-08T12:15:09;94956.06;;;24.99;46.78
23176;BME280;19910;42.652;23.332;2023-09-08T12:17:46;94956.38;;;24.63;47.33
23176;BME280;19910;42.652;23.332;2023-09-08T12:20:14;94948.34;;;24.76;48.12
23176;BME280;19910;42.652;23.332;2023-09-08T12:22:47;94948.94;;;24.98;46.98
23176;BME280;19910;42.652;23.332;2023-09-08T12:25:15;94952.13;;;24.93;46.89
23176;BME280;19910;42.652;23.332;2023-09-08T12:27:45;94946.56;;;25.00;47.19
23176;BME280;19910;42.652;23.332;2023-09-08T12:30:17;94942.50;;;25.08;46.29
23176;BME280;19910;42.652;23.332;2023-09-08T12:32:48;94923.13;;;25.38;45.83
23176;BME280;19910;42.652;23.332;2023-09-08T12:35:20;94926.16;;;25.81;45.12
23176;BME280;19910;42.652;23.332;2023-09-08T12:37:57;94918.69;;;25.44;44.83
23176;BME280;19910;42.652;23.332;2023-09-08T12:40:25;94924.13;;;25.21;45.19
23176;BME280;19910;42.652;23.332;2023-09-08T12:42:54;94925.66;;;25.26;45.16
23176;BME280;19910;42.652;23.332;2023-09-08T12:45:23;94915.19;;;25.40;44.86
23176;BME280;19910;42.652;23.332;2023-09-08T12:47:50;94935.22;;;25.21;44.85
23176;BME280;19910;42.652;23.332;2023-09-08T12:50:17;94908.78;;;25.13;45.59
23176;BME280;19910;42.652;23.332;2023-09-08T12:52:44;94922.38;;;25.34;45.85
23176;BME280;19910;42.652;23.332;2023-09-08T12:55:11;94915.34;;;25.87;44.74
23176;BME280;19910;42.652;23.332;2023-09-08T12:57:38;94916.19;;;25.84;44.19
23176;BME280;19910;42.652;23.332;2023-09-08T13:00:07;94918.81;;;25.68;43.46